createdAt,value
2023-04-04T00:00:48.348Z,2.70
2023-04-04T00:03:15.805Z,2.80
2023-04-04T00:05:43.566Z,2.80
2023-04-04T00:08:11.188Z,2.80
2023-04-04T00:10:38.628Z,2.80
2023-04-04T00:13:07.609Z,2.80
2023-04-04T00:15:36.752Z,2.80
2023-04-04T00:18:04.384Z,2.80
2023-04-04T00:20:31.935Z,2.70
2023-04-04T00:22:59.344Z,2.70
2023-04-04T00:25:26.762Z,2.70
2023-04-04T00:27:54.200Z,2.70
2023-04-04T00:30:21.644Z,2.70
2023-04-04T00:32:49.365Z,2.60
2023-04-04T00:35:16.857Z,2.60
2023-04-04T00:37:44.139Z,2.50
2023-04-04T00:40:11.670Z,2.50
2023-04-04T00:42:39.252Z,2.50
2023-04-04T00:45:09.928Z,2.50
2023-04-04T00:47:37.313Z,2.50
2023-04-04T00:50:05.470Z,2.50
2023-04-04T00:52:32.972Z,2.40
2023-04-04T00:55:00.398Z,2.40
2023-04-04T00:57:28.849Z,2.40
2023-04-04T00:59:57.662Z,2.30
2023-04-04T01:02:25.541Z,2.40
2023-04-04T01:04:52.858Z,2.30
2023-04-04T01:07:20.330Z,2.30
2023-04-04T01:09:47.895Z,2.20
2023-04-04T01:12:15.546Z,2.30
2023-04-04T01:14:43.217Z,2.20
2023-04-04T01:17:10.664Z,2.20
2023-04-04T01:19:43.716Z,2.20
2023-04-04T01:22:15.880Z,2.20
2023-04-04T01:24:45.285Z,2.20
2023-04-04T01:27:13.482Z,2.20
2023-04-04T01:29:47.194Z,2.10
2023-04-04T01:32:20.702Z,2.10
2023-04-04T01:35:14.671Z,2.10
2023-04-04T01:38:04.043Z,2.00
2023-04-04T01:40:35.519Z,2.00
2023-04-04T01:43:04.018Z,1.90
2023-04-04T01:45:33.898Z,1.90
2023-04-04T01:48:03.537Z,1.90
2023-04-04T01:50:31.289Z,1.90
2023-04-04T01:52:58.844Z,1.90
2023-04-04T01:55:26.242Z,1.80
2023-04-04T01:57:53.634Z,1.80
2023-04-04T02:00:21.031Z,1.80
2023-04-04T02:02:48.287Z,1.80
2023-04-04T02:05:16.157Z,1.80
2023-04-04T02:07:48.962Z,1.80
2023-04-04T02:10:25.340Z,1.70
2023-04-04T02:12:53.467Z,1.80
2023-04-04T02:15:23.929Z,1.70
2023-04-04T02:17:51.305Z,1.70
2023-04-04T02:20:19.588Z,1.60
2023-04-04T02:22:53.924Z,1.60
2023-04-04T02:25:22.312Z,1.60
2023-04-04T02:27:49.731Z,1.50
2023-04-04T02:30:17.090Z,1.50
2023-04-04T02:32:45.162Z,1.50
2023-04-04T02:35:19.573Z,1.50
2023-04-04T02:37:50.022Z,1.50
2023-04-04T02:40:24.600Z,1.50
2023-04-04T02:42:51.924Z,1.50
2023-04-04T02:45:21.064Z,1.50
2023-04-04T02:48:00.181Z,1.40
2023-04-04T02:50:39.269Z,1.50
2023-04-04T02:53:07.864Z,1.50
2023-04-04T02:55:36.316Z,1.50
2023-04-04T02:58:03.851Z,1.50
2023-04-04T03:00:31.348Z,1.50
2023-04-04T03:02:58.819Z,1.50
2023-04-04T03:05:32.002Z,1.50
2023-04-04T03:07:59.517Z,1.40
2023-04-04T03:10:31.700Z,1.40
2023-04-04T03:12:59.146Z,1.40
2023-04-04T03:15:28.223Z,1.40
2023-04-04T03:17:55.714Z,1.40
2023-04-04T03:20:27.147Z,1.40
2023-04-04T03:22:54.836Z,1.40
2023-04-04T03:25:22.227Z,1.40
2023-04-04T03:27:49.563Z,1.30
2023-04-04T03:30:26.209Z,1.30
2023-04-04T03:32:53.734Z,1.30
2023-04-04T03:35:21.194Z,1.30
2023-04-04T03:37:48.483Z,1.20
2023-04-04T03:40:16.008Z,1.10
2023-04-04T03:42:43.414Z,1.10
2023-04-04T03:45:12.970Z,1.10
2023-04-04T03:47:42.859Z,1.10
2023-04-04T03:50:10.710Z,1.10
2023-04-04T03:52:41.347Z,1.10
2023-04-04T03:55:09.277Z,1.10
2023-04-04T03:57:36.887Z,1.10
2023-04-04T04:00:06.440Z,1.10
2023-04-04T04:02:42.769Z,1.10
2023-04-04T04:05:11.150Z,1.10
2023-04-04T04:07:38.493Z,1.10
2023-04-04T04:10:06.552Z,1.10
2023-04-04T04:12:33.879Z,1.20
2023-04-04T04:15:01.260Z,1.20
2023-04-04T04:17:32.016Z,1.30
2023-04-04T04:19:59.509Z,1.20
2023-04-04T04:22:33.514Z,1.20
2023-04-04T04:25:01.860Z,1.20
2023-04-04T04:27:30.999Z,1.10
2023-04-04T04:29:58.391Z,1.10
2023-04-04T04:32:26.666Z,1.00
2023-04-04T04:34:54.921Z,1.00
2023-04-04T04:37:27.686Z,1.00
2023-04-04T04:39:57.345Z,1.10
2023-04-04T04:42:48.811Z,1.10
2023-04-04T04:45:20.756Z,1.10
2023-04-04T04:47:53.395Z,1.10
2023-04-04T04:50:21.570Z,1.10
2023-04-04T04:52:54.090Z,1.10
2023-04-04T04:55:21.504Z,1.20
2023-04-04T04:58:00.252Z,1.20
2023-04-04T05:00:28.967Z,1.20
2023-04-04T05:02:56.875Z,1.20
2023-04-04T05:05:36.272Z,1.20
2023-04-04T05:08:07.698Z,1.20
2023-04-04T05:10:39.446Z,1.20
2023-04-04T05:13:08.083Z,1.30
2023-04-04T05:15:42.068Z,1.40
2023-04-04T05:18:09.798Z,1.40
2023-04-04T05:20:37.814Z,1.40
2023-04-04T05:23:07.474Z,1.40
2023-04-04T05:25:39.543Z,1.50
2023-04-04T05:28:08.077Z,1.40
2023-04-04T05:30:37.348Z,1.40
2023-04-04T05:33:18.287Z,1.50
2023-04-04T05:35:55.054Z,1.50
2023-04-04T05:38:22.598Z,1.50
2023-04-04T05:40:56.074Z,1.50
2023-04-04T05:43:24.565Z,1.50
2023-04-04T05:46:20.933Z,1.60
2023-04-04T05:48:52.220Z,1.60
2023-04-04T05:51:20.499Z,1.70
2023-04-04T05:53:58.875Z,1.70
2023-04-04T05:56:30.913Z,1.80
2023-04-04T05:58:59.988Z,1.80
2023-04-04T06:01:32.820Z,1.80
2023-04-04T06:04:03.548Z,1.90
2023-04-04T06:06:30.938Z,1.90
2023-04-04T06:08:58.282Z,1.90
2023-04-04T06:11:26.329Z,2.00
2023-04-04T06:14:01.802Z,2.00
2023-04-04T06:16:30.013Z,2.00
2023-04-04T06:18:57.429Z,1.90
2023-04-04T06:21:24.799Z,2.00
2023-04-04T06:23:52.294Z,2.00
2023-04-04T06:26:20.577Z,2.00
2023-04-04T06:28:51.982Z,2.10
2023-04-04T06:31:24.472Z,2.10
2023-04-04T06:33:54.723Z,2.20
2023-04-04T06:36:24.236Z,2.30
2023-04-04T06:38:52.412Z,2.30
2023-04-04T06:41:22.552Z,2.40
2023-04-04T06:43:52.833Z,2.40
2023-04-04T06:46:20.248Z,2.50
2023-04-04T06:48:47.906Z,2.60
2023-04-04T06:51:17.664Z,2.70
2023-04-04T06:53:46.574Z,2.70
2023-04-04T06:56:13.951Z,2.80
2023-04-04T06:58:41.333Z,2.80
2023-04-04T07:01:08.804Z,2.80
2023-04-04T07:03:36.458Z,2.80
2023-04-04T07:06:04.632Z,2.80
2023-04-04T07:08:36.086Z,2.80
2023-04-04T07:11:05.240Z,2.90
2023-04-04T07:13:32.821Z,2.90
2023-04-04T07:16:00.303Z,2.90
2023-04-04T07:18:27.874Z,3.00
2023-04-04T07:20:55.341Z,3.00
2023-04-04T07:23:22.631Z,3.10
2023-04-04T07:25:50.332Z,3.20
2023-04-04T07:28:17.632Z,3.20
2023-04-04T07:30:44.984Z,3.20
2023-04-04T07:33:12.483Z,3.20
2023-04-04T07:35:39.987Z,3.40
2023-04-04T07:38:08.076Z,3.30
2023-04-04T07:40:35.630Z,3.40
2023-04-04T07:43:02.969Z,3.40
2023-04-04T07:45:30.407Z,3.50
2023-04-04T07:47:58.082Z,3.70
2023-04-04T07:50:26.224Z,3.70
2023-04-04T07:52:55.907Z,3.70
2023-04-04T07:55:25.314Z,3.80
2023-04-04T07:57:53.086Z,3.90
2023-04-04T08:00:26.476Z,3.90
2023-04-04T08:02:54.834Z,3.80
2023-04-04T08:05:22.282Z,3.90
2023-04-04T08:07:49.731Z,3.90
2023-04-04T08:10:21.682Z,3.90
2023-04-04T08:12:49.598Z,3.90
2023-04-04T08:15:16.926Z,3.90
2023-04-04T08:17:44.401Z,4.00
2023-04-04T08:20:12.483Z,4.00
2023-04-04T08:22:40.964Z,4.10
2023-04-04T08:25:09.227Z,4.20
2023-04-04T08:27:39.061Z,4.20
2023-04-04T08:30:07.196Z,4.30
2023-04-04T08:32:34.605Z,4.30
2023-04-04T08:35:02.601Z,4.30
2023-04-04T08:37:30.959Z,4.30
2023-04-04T08:39:58.476Z,4.30
2023-04-04T08:42:25.847Z,4.20
2023-04-04T08:44:53.965Z,4.20
2023-04-04T08:47:23.040Z,4.30
2023-04-04T08:49:50.648Z,4.40
2023-04-04T08:52:21.750Z,4.40
2023-04-04T08:54:49.557Z,4.50
2023-04-04T08:57:17.017Z,4.60
2023-04-04T08:59:44.431Z,4.60
2023-04-04T09:02:12.643Z,4.60
2023-04-04T09:04:40.860Z,4.70
2023-04-04T09:07:08.514Z,4.70
2023-04-04T09:09:37.825Z,4.80
2023-04-04T09:12:05.296Z,4.90
2023-04-04T09:14:32.653Z,4.90
2023-04-04T09:17:00.113Z,4.90
2023-04-04T09:19:27.636Z,5.00
2023-04-04T09:21:54.974Z,5.00
2023-04-04T09:24:22.273Z,5.00
2023-04-04T09:26:53.740Z,5.00
2023-04-04T09:29:21.519Z,4.90
2023-04-04T09:31:49.716Z,4.90
2023-04-04T09:34:18.303Z,4.90
2023-04-04T09:36:45.951Z,4.90
2023-04-04T09:39:16.482Z,4.90
2023-04-04T09:41:47.085Z,4.90
2023-04-04T09:44:14.698Z,5.00
2023-04-04T09:46:42.187Z,5.00
2023-04-04T09:49:20.707Z,5.10
2023-04-04T09:51:56.957Z,5.10
2023-04-04T09:54:29.502Z,5.20
2023-04-04T09:56:57.633Z,5.30
2023-04-04T09:59:24.997Z,5.30
2023-04-04T10:01:55.122Z,5.40
2023-04-04T10:04:24.719Z,5.40
2023-04-04T10:06:53.554Z,5.30
2023-04-04T10:09:20.878Z,5.40
2023-04-04T10:11:48.601Z,5.40
2023-04-04T10:14:15.987Z,5.40
2023-04-04T10:16:45.427Z,5.50
2023-04-04T10:19:18.704Z,5.50
2023-04-04T10:21:46.820Z,5.50
2023-04-04T10:24:14.428Z,5.50
2023-04-04T10:26:42.099Z,5.50
2023-04-04T10:29:09.474Z,5.60
2023-04-04T10:31:40.955Z,5.60
2023-04-04T10:34:36.122Z,5.70
2023-04-04T10:37:09.562Z,5.80
2023-04-04T10:39:50.641Z,5.60
2023-04-04T10:42:19.395Z,5.50
2023-04-04T10:44:46.978Z,5.40
2023-04-04T10:47:17.600Z,5.40
2023-04-04T10:49:45.829Z,5.40
2023-04-04T10:52:14.796Z,5.30
2023-04-04T10:54:43.855Z,5.10
2023-04-04T10:57:11.615Z,5.10
2023-04-04T11:00:01.716Z,5.10
2023-04-04T11:02:59.534Z,5.20
2023-04-04T11:05:41.336Z,5.00
2023-04-04T11:08:14.137Z,4.90
2023-04-04T11:10:43.223Z,4.80
2023-04-04T11:13:16.634Z,4.90
2023-04-04T11:15:49.933Z,5.00
2023-04-04T11:18:30.669Z,5.10
2023-04-04T11:21:03.716Z,5.30
2023-04-04T11:23:49.629Z,5.40
2023-04-04T11:26:30.310Z,5.50
2023-04-04T11:28:58.452Z,5.40
2023-04-04T11:31:30.136Z,5.40
2023-04-04T11:34:00.293Z,5.60
2023-04-04T11:36:37.484Z,5.70
2023-04-04T11:39:28.677Z,5.80
2023-04-04T11:42:12.214Z,5.80
2023-04-04T11:45:02.126Z,5.70
2023-04-04T11:47:30.128Z,5.60
2023-04-04T11:49:58.595Z,5.70
2023-04-04T11:52:25.995Z,5.80
2023-04-04T11:54:53.334Z,5.90
2023-04-04T11:57:21.327Z,5.90
2023-04-04T11:59:52.321Z,6.00
2023-04-04T12:02:23.527Z,6.00
2023-04-04T12:04:51.744Z,5.90
2023-04-04T12:07:19.167Z,5.60
2023-04-04T12:09:46.473Z,5.50
2023-04-04T12:12:14.586Z,5.60
2023-04-04T12:14:42.378Z,5.80
2023-04-04T12:17:09.812Z,6.00
2023-04-04T12:19:38.560Z,6.30
2023-04-04T12:22:06.017Z,7.30
2023-04-04T12:24:33.495Z,8.00
2023-04-04T12:27:01.449Z,8.50
2023-04-04T12:29:29.711Z,9.00
2023-04-04T12:31:58.148Z,8.90
2023-04-04T12:36:57.254Z,9.90
2023-04-04T12:39:28.545Z,10.50
2023-04-04T12:41:58.668Z,10.10
2023-04-04T12:44:30.389Z,9.80
2023-04-04T12:47:03.219Z,9.40
2023-04-04T12:49:31.705Z,9.00
2023-04-04T12:52:04.848Z,8.70
2023-04-04T12:54:33.040Z,8.50
2023-04-04T12:57:04.154Z,8.30
2023-04-04T12:59:32.477Z,8.10
2023-04-04T13:02:08.831Z,7.80
2023-04-04T13:04:36.233Z,7.50
2023-04-04T13:07:04.187Z,7.20
2023-04-04T13:09:32.055Z,7.10
2023-04-04T13:12:04.531Z,6.90
2023-04-04T13:15:00.732Z,6.90
2023-04-04T13:17:50.259Z,6.90
2023-04-04T13:20:19.134Z,6.90
2023-04-04T13:22:46.568Z,7.00
2023-04-04T13:25:14.971Z,7.10
2023-04-04T13:27:43.140Z,7.30
2023-04-04T13:30:11.496Z,7.40
2023-04-04T13:32:39.392Z,7.50
2023-04-04T13:35:07.634Z,7.50
2023-04-04T13:37:34.994Z,7.70
2023-04-04T13:40:02.293Z,7.80
2023-04-04T13:42:31.603Z,7.90
2023-04-04T13:44:59.002Z,7.90
2023-04-04T13:47:27.593Z,7.80
2023-04-04T13:49:55.446Z,7.80
2023-04-04T13:52:23.622Z,7.60
2023-04-04T13:54:51.591Z,7.50
2023-04-04T13:57:18.921Z,7.40
2023-04-04T13:59:46.502Z,7.40
2023-04-04T14:02:13.878Z,7.50
2023-04-04T14:04:41.649Z,7.60
2023-04-04T14:07:09.184Z,7.70
2023-04-04T14:09:37.252Z,7.70
2023-04-04T14:12:05.214Z,7.80
2023-04-04T14:14:35.505Z,7.90
2023-04-04T14:17:04.099Z,7.90
2023-04-04T14:19:31.389Z,7.80
2023-04-04T14:21:58.757Z,7.60
2023-04-04T14:24:26.108Z,7.40
2023-04-04T14:26:53.450Z,7.30
2023-04-04T14:29:21.890Z,7.10
2023-04-04T14:31:52.121Z,7.10
2023-04-04T14:34:19.509Z,7.00
2023-04-04T14:36:47.637Z,6.80
2023-04-04T14:39:14.934Z,6.70
2023-04-04T14:41:42.283Z,6.60
2023-04-04T14:44:09.873Z,6.50
2023-04-04T14:46:37.298Z,6.50
2023-04-04T14:49:06.478Z,6.50
2023-04-04T14:51:33.994Z,6.70
2023-04-04T14:54:01.371Z,6.80
2023-04-04T14:56:28.758Z,6.90
2023-04-04T14:58:57.140Z,6.90
2023-04-04T15:01:24.685Z,6.90
2023-04-04T15:03:54.024Z,6.90
2023-04-04T15:06:21.706Z,7.00
2023-04-04T15:08:49.653Z,7.10
2023-04-04T15:11:17.125Z,7.30
2023-04-04T15:13:44.465Z,7.50
2023-04-04T15:16:12.324Z,7.60
2023-04-04T15:18:42.489Z,7.70
2023-04-04T15:21:09.842Z,7.60
2023-04-04T15:23:37.143Z,7.60
2023-04-04T15:26:05.415Z,7.50
2023-04-04T15:28:33.254Z,7.40
2023-04-04T15:31:03.905Z,7.10
2023-04-04T15:33:31.434Z,7.10
2023-04-04T15:35:58.777Z,7.10
2023-04-04T15:38:26.172Z,7.30
2023-04-04T15:40:53.546Z,7.40
2023-04-04T15:43:20.831Z,7.60
2023-04-04T15:45:48.184Z,7.70
2023-04-04T15:48:15.623Z,7.70
2023-04-04T15:50:43.155Z,7.60
2023-04-04T15:53:10.559Z,7.40
2023-04-04T15:55:37.919Z,7.30
2023-04-04T15:58:05.501Z,7.10
2023-04-04T16:00:33.757Z,6.80
2023-04-04T16:03:01.419Z,6.70
2023-04-04T16:05:28.925Z,6.50
2023-04-04T16:07:56.418Z,6.40
2023-04-04T16:10:23.772Z,6.40
2023-04-04T16:12:51.135Z,6.40
2023-04-04T16:15:18.515Z,6.50
2023-04-04T16:17:47.040Z,6.60
2023-04-04T16:20:14.797Z,6.70
2023-04-04T16:22:42.125Z,6.80
2023-04-04T16:25:10.148Z,6.90
2023-04-04T16:27:38.462Z,6.90
2023-04-04T16:30:06.342Z,6.90
2023-04-04T16:32:34.564Z,6.90
2023-04-04T16:35:02.137Z,6.90
2023-04-04T16:37:56.655Z,6.90
2023-04-04T16:40:55.481Z,6.90
2023-04-04T16:43:22.992Z,6.80
2023-04-04T16:46:00.920Z,6.80
2023-04-04T16:48:36.912Z,6.80
2023-04-04T16:51:04.519Z,6.80
2023-04-04T16:54:27.742Z,6.80
2023-04-04T16:57:03.742Z,6.70
2023-04-04T16:59:31.164Z,6.60
2023-04-04T17:01:58.662Z,6.50
2023-04-04T17:04:26.118Z,6.40
2023-04-04T17:06:53.457Z,6.40
2023-04-04T17:09:21.167Z,6.30
2023-04-04T17:11:48.769Z,6.30
2023-04-04T17:14:16.097Z,6.20
2023-04-04T17:16:43.622Z,6.20
2023-04-04T17:19:11.015Z,6.10
2023-04-04T17:21:38.352Z,6.10
2023-04-04T17:24:05.996Z,6.10
2023-04-04T17:26:33.493Z,6.00
2023-04-04T17:29:00.873Z,5.80
2023-04-04T17:31:28.243Z,5.70
2023-04-04T17:33:55.664Z,5.70
2023-04-04T17:36:23.012Z,5.60
2023-04-04T17:38:50.747Z,5.60
2023-04-04T17:41:18.186Z,5.60
2023-04-04T17:43:45.498Z,5.50
2023-04-04T17:46:12.830Z,5.50
2023-04-04T17:48:40.461Z,5.50
2023-04-04T17:51:08.721Z,5.50
2023-04-04T17:53:36.508Z,5.60
2023-04-04T17:56:04.049Z,5.60
2023-04-04T17:58:31.753Z,5.50
2023-04-04T18:01:01.600Z,5.50
2023-04-04T18:03:29.393Z,5.50
2023-04-04T18:05:57.021Z,5.50
2023-04-04T18:08:24.371Z,5.40
2023-04-04T18:10:52.361Z,5.50
2023-04-04T18:13:19.740Z,5.40
2023-04-04T18:15:47.138Z,5.40
2023-04-04T18:18:14.495Z,5.40
2023-04-04T18:20:41.901Z,5.50
2023-04-04T18:23:09.409Z,5.50
2023-04-04T18:25:36.751Z,5.50
2023-04-04T18:28:04.322Z,5.40
2023-04-04T18:30:31.922Z,5.40
2023-04-04T18:32:59.370Z,5.40
2023-04-04T18:35:27.132Z,5.40
2023-04-04T18:37:54.422Z,5.40
2023-04-04T18:40:21.689Z,5.30
2023-04-04T18:42:49.065Z,5.30
2023-04-04T18:45:18.254Z,5.20
2023-04-04T18:47:45.961Z,5.20
2023-04-04T18:50:13.975Z,5.20
2023-04-04T18:52:42.267Z,5.10
2023-04-04T18:55:10.099Z,5.10
2023-04-04T18:57:37.643Z,5.10
2023-04-04T19:00:06.766Z,5.00
2023-04-04T19:02:37.237Z,5.00
2023-04-04T19:05:05.194Z,5.00
2023-04-04T19:07:32.645Z,5.00
2023-04-04T19:10:02.958Z,4.90
2023-04-04T19:12:30.338Z,4.90
2023-04-04T19:14:59.088Z,4.90
2023-04-04T19:17:27.172Z,4.90
2023-04-04T19:19:54.593Z,4.90
2023-04-04T19:22:22.060Z,4.90
2023-04-04T19:24:49.348Z,4.80
2023-04-04T19:27:16.681Z,4.80
2023-04-04T19:29:43.997Z,4.80
2023-04-04T19:32:14.160Z,4.70
2023-04-04T19:34:44.803Z,4.70
2023-04-04T19:37:12.578Z,4.70
2023-04-04T19:39:41.798Z,4.70
2023-04-04T19:42:09.320Z,4.70
2023-04-04T19:44:37.989Z,4.60
2023-04-04T19:47:06.504Z,4.70
2023-04-04T19:49:35.369Z,4.60
2023-04-04T19:52:04.411Z,4.60
2023-04-04T19:54:40.978Z,4.50
2023-04-04T19:57:19.946Z,4.50
2023-04-04T19:59:53.639Z,4.50
2023-04-04T20:02:27.361Z,4.40
2023-04-04T20:04:55.344Z,4.40
2023-04-04T20:07:23.709Z,4.40
2023-04-04T20:09:54.247Z,4.40
2023-04-04T20:12:22.962Z,4.40
2023-04-04T20:14:51.004Z,4.50
2023-04-04T20:17:18.535Z,4.50
2023-04-04T20:19:45.923Z,4.50
2023-04-04T20:22:13.594Z,4.50
2023-04-04T20:24:46.714Z,4.50
2023-04-04T20:27:23.859Z,4.50
2023-04-04T20:29:52.730Z,4.50
2023-04-04T20:32:20.062Z,4.40
2023-04-04T20:34:49.713Z,4.40
2023-04-04T20:37:26.152Z,4.40
2023-04-04T20:39:54.958Z,4.40
2023-04-04T20:42:31.372Z,4.40
2023-04-04T20:45:14.197Z,4.30
2023-04-04T20:47:46.695Z,4.20
2023-04-04T20:50:17.196Z,4.30
2023-04-04T20:52:49.333Z,4.30
2023-04-04T20:55:20.991Z,4.20
2023-04-04T20:57:48.806Z,4.20
2023-04-04T21:00:28.667Z,4.20
2023-04-04T21:02:56.832Z,4.10
2023-04-04T21:05:30.091Z,4.10
2023-04-04T21:07:58.276Z,4.10
2023-04-04T21:10:28.721Z,4.00
2023-04-04T21:13:03.368Z,3.90
2023-04-04T21:15:33.630Z,3.90
2023-04-04T21:18:02.493Z,3.90
2023-04-04T21:20:45.456Z,4.00
2023-04-04T21:23:28.063Z,4.00
2023-04-04T21:25:57.036Z,3.90
2023-04-04T21:28:29.869Z,3.90
2023-04-04T21:30:57.311Z,3.80
2023-04-04T21:33:24.742Z,3.80
2023-04-04T21:35:53.476Z,3.80
2023-04-04T21:38:33.000Z,3.80
2023-04-04T21:41:01.040Z,3.80
2023-04-04T21:43:28.532Z,3.70
2023-04-04T21:45:56.482Z,3.70
2023-04-04T21:48:24.251Z,3.70
2023-04-04T21:50:51.538Z,3.70
2023-04-04T21:53:18.942Z,3.60
2023-04-04T21:55:46.273Z,3.60
2023-04-04T21:58:13.699Z,3.60
2023-04-04T22:00:41.907Z,3.60
2023-04-04T22:03:09.387Z,3.50
2023-04-04T22:05:39.265Z,3.50
2023-04-04T22:08:06.961Z,3.50
2023-04-04T22:10:34.352Z,3.40
2023-04-04T22:13:01.880Z,3.40
2023-04-04T22:15:31.877Z,3.40
2023-04-04T22:18:03.669Z,3.40
2023-04-04T22:20:34.145Z,3.40
2023-04-04T22:23:05.733Z,3.50
2023-04-04T22:25:36.218Z,3.50
2023-04-04T22:28:04.577Z,3.40
2023-04-04T22:30:31.866Z,3.40
2023-04-04T22:33:03.563Z,3.30
2023-04-04T22:35:34.555Z,3.40
2023-04-04T22:38:03.182Z,3.30
2023-04-04T22:40:31.935Z,3.40
2023-04-04T22:42:59.810Z,3.30
2023-04-04T22:45:27.325Z,3.30
2023-04-04T22:47:54.927Z,3.20
2023-04-04T22:50:25.549Z,3.20
2023-04-04T22:52:54.710Z,3.10
2023-04-04T22:55:23.915Z,3.00
2023-04-04T22:57:51.332Z,3.00
2023-04-04T23:00:18.976Z,3.00
2023-04-04T23:02:48.091Z,2.90
2023-04-04T23:05:17.028Z,2.90
2023-04-04T23:07:45.300Z,3.00
2023-04-04T23:10:14.028Z,3.10
2023-04-04T23:12:41.356Z,3.00
2023-04-04T23:15:08.895Z,2.90
2023-04-04T23:17:36.574Z,2.90
2023-04-04T23:20:10.156Z,2.80
2023-04-04T23:22:38.243Z,2.80
2023-04-04T23:25:07.528Z,2.80
2023-04-04T23:27:34.943Z,2.70
2023-04-04T23:30:03.842Z,2.70
2023-04-04T23:32:32.010Z,2.70
2023-04-04T23:34:59.423Z,2.70
2023-04-04T23:37:26.769Z,2.60
2023-04-04T23:39:54.372Z,2.60
2023-04-04T23:42:21.789Z,2.60
2023-04-04T23:44:49.140Z,2.50
2023-04-04T23:47:16.585Z,2.50
2023-04-04T23:49:43.925Z,2.50
2023-04-04T23:52:11.206Z,2.50
2023-04-04T23:54:38.584Z,2.50
2023-04-04T23:57:05.910Z,2.50
2023-04-04T23:59:33.251Z,2.40
